sensor_id;sensor_type;location;lat;lon;timestamp;temperature;humidity
5924;DHT22;2987;50.884;14.818;2022-12-18T00:00:59;-2.70;99.90
5924;DHT22;2987;50.884;14.818;2022-12-18T00:03:25;-2.70;99.90
5924;DHT22;2987;50.884;14.818;2022-12-18T00:05:52;-2.90;99.90
5924;DHT22;2987;50.884;14.818;2022-12-18T00:08:19;-2.70;99.90
5924;DHT22;2987;50.884;14.818;2022-12-18T00:10:45;-2.90;99.90
5924;DHT22;2987;50.884;14.818;2022-12-18T00:13:12;-2.80;99.90
5924;DHT22;2987;50.884;14.818;2022-12-18T00:15:39;-2.70;99.90
5924;DHT22;2987;50.884;14.818;2022-12-18T00:18:06;-2.90;99.90
5924;DHT22;2987;50.884;14.818;2022-12-18T00:20:36;-2.60;99.90
5924;DHT22;2987;50.884;14.818;2022-12-18T00:23:04;-2.90;99.90
5924;DHT22;2987;50.884;14.818;2022-12-18T00:25:33;-2.70;99.90
5924;DHT22;2987;50.884;14.818;2022-12-18T00:28:03;-2.90;99.90
5924;DHT22;2987;50.884;14.818;2022-12-18T00:30:30;-2.60;99.90
5924;DHT22;2987;50.884;14.818;2022-12-18T00:32:56;-2.90;99.90
5924;DHT22;2987;50.884;14.818;2022-12-18T00:35:25;-3.00;99.90
5924;DHT22;2987;50.884;14.818;2022-12-18T00:37:52;-2.90;99.90
5924;DHT22;2987;50.884;14.818;2022-12-18T00:40:18;-2.80;99.90
5924;DHT22;2987;50.884;14.818;2022-12-18T00:42:44;-3.00;99.90
5924;DHT22;2987;50.884;14.818;2022-12-18T00:45:27;-2.90;99.90
5924;DHT22;2987;50.884;14.818;2022-12-18T00:47:54;-2.90;99.90
5924;DHT22;2987;50.884;14.818;2022-12-18T00:50:22;-3.10;99.90
5924;DHT22;2987;50.884;14.818;2022-12-18T00:52:48;-2.60;99.90
5924;DHT22;2987;50.884;14.818;2022-12-18T00:55:16;-2.90;99.90
5924;DHT22;2987;50.884;14.818;2022-12-18T00:57:42;-3.10;99.90
5924;DHT22;2987;50.884;14.818;2022-12-18T01:00:12;-3.10;99.90
5924;DHT22;2987;50.884;14.818;2022-12-18T01:02:38;-2.90;99.90
5924;DHT22;2987;50.884;14.818;2022-12-18T01:05:07;-3.10;99.90
5924;DHT22;2987;50.884;14.818;2022-12-18T01:07:34;-2.90;99.90
5924;DHT22;2987;50.884;14.818;2022-12-18T01:10:02;-3.00;99.90
5924;DHT22;2987;50.884;14.818;2022-12-18T01:12:29;-3.00;99.90
5924;DHT22;2987;50.884;14.818;2022-12-18T01:14:55;-3.10;99.90
5924;DHT22;2987;50.884;14.818;2022-12-18T01:17:21;-3.00;99.90
5924;DHT22;2987;50.884;14.818;2022-12-18T01:19:48;-2.70;99.90
5924;DHT22;2987;50.884;14.818;2022-12-18T01:22:14;-2.60;99.90
5924;DHT22;2987;50.884;14.818;2022-12-18T01:24:40;-2.90;99.90
5924;DHT22;2987;50.884;14.818;2022-12-18T01:27:06;-2.80;99.90
5924;DHT22;2987;50.884;14.818;2022-12-18T01:29:32;-2.90;99.90
5924;DHT22;2987;50.884;14.818;2022-12-18T01:32:00;-3.00;99.90
5924;DHT22;2987;50.884;14.818;2022-12-18T01:34:29;-3.10;99.90
5924;DHT22;2987;50.884;14.818;2022-12-18T01:36:55;-3.10;99.90
5924;DHT22;2987;50.884;14.818;2022-12-18T01:39:21;-3.10;99.90
5924;DHT22;2987;50.884;14.818;2022-12-18T01:41:47;-3.00;99.90
5924;DHT22;2987;50.884;14.818;2022-12-18T01:50:19;-2.90;99.90
5924;DHT22;2987;50.884;14.818;2022-12-18T01:52:50;-2.90;99.90
5924;DHT22;2987;50.884;14.818;2022-12-18T01:55:20;-3.20;99.90
5924;DHT22;2987;50.884;14.818;2022-12-18T01:57:49;-3.10;99.90
5924;DHT22;2987;50.884;14.818;2022-12-18T02:00:20;-3.20;99.90
5924;DHT22;2987;50.884;14.818;2022-12-18T02:02:47;-2.90;99.90
5924;DHT22;2987;50.884;14.818;2022-12-18T02:05:19;-2.90;99.90
5924;DHT22;2987;50.884;14.818;2022-12-18T02:08:05;-2.80;99.90
5924;DHT22;2987;50.884;14.818;2022-12-18T02:13:45;-2.70;99.90
5924;DHT22;2987;50.884;14.818;2022-12-18T02:19:09;-2.80;99.90
5924;DHT22;2987;50.884;14.818;2022-12-18T02:21:58;-2.90;99.90
5924;DHT22;2987;50.884;14.818;2022-12-18T02:24:33;-3.20;99.90
5924;DHT22;2987;50.884;14.818;2022-12-18T02:27:04;-2.90;99.90
5924;DHT22;2987;50.884;14.818;2022-12-18T02:29:51;-3.20;99.90
5924;DHT22;2987;50.884;14.818;2022-12-18T02:32:24;-3.10;99.90
5924;DHT22;2987;50.884;14.818;2022-12-18T02:34:53;-3.10;99.90
5924;DHT22;2987;50.884;14.818;2022-12-18T02:37:23;-2.90;99.90
5924;DHT22;2987;50.884;14.818;2022-12-18T02:39:53;-2.80;99.90
5924;DHT22;2987;50.884;14.818;2022-12-18T02:42:21;-3.10;99.90
5924;DHT22;2987;50.884;14.818;2022-12-18T02:44:50;-3.10;99.90
5924;DHT22;2987;50.884;14.818;2022-12-18T02:47:23;-3.30;99.90
5924;DHT22;2987;50.884;14.818;2022-12-18T02:50:02;-3.30;99.90
5924;DHT22;2987;50.884;14.818;2022-12-18T02:52:44;-3.30;99.90
5924;DHT22;2987;50.884;14.818;2022-12-18T02:55:23;-3.10;99.90
5924;DHT22;2987;50.884;14.818;2022-12-18T02:58:01;-3.30;99.90
5924;DHT22;2987;50.884;14.818;2022-12-18T03:00:43;-3.30;99.90
5924;DHT22;2987;50.884;14.818;2022-12-18T03:03:29;-3.30;99.90
5924;DHT22;2987;50.884;14.818;2022-12-18T03:06:21;-3.20;99.90
5924;DHT22;2987;50.884;14.818;2022-12-18T03:08:55;-3.00;99.90
5924;DHT22;2987;50.884;14.818;2022-12-18T03:11:26;-3.30;99.90
5924;DHT22;2987;50.884;14.818;2022-12-18T03:14:16;-3.10;99.90
5924;DHT22;2987;50.884;14.818;2022-12-18T03:16:48;-3.50;99.90
5924;DHT22;2987;50.884;14.818;2022-12-18T03:19:18;-3.30;99.90
5924;DHT22;2987;50.884;14.818;2022-12-18T03:21:53;-3.50;99.90
5924;DHT22;2987;50.884;14.818;2022-12-18T03:24:21;-3.50;99.90
5924;DHT22;2987;50.884;14.818;2022-12-18T03:26:54;-3.00;99.90
5924;DHT22;2987;50.884;14.818;2022-12-18T03:29:25;-3.40;99.90
5924;DHT22;2987;50.884;14.818;2022-12-18T03:31:56;-3.30;99.90
5924;DHT22;2987;50.884;14.818;2022-12-18T03:34:32;-3.30;99.90
5924;DHT22;2987;50.884;14.818;2022-12-18T03:37:04;-3.50;99.90
5924;DHT22;2987;50.884;14.818;2022-12-18T03:39:33;-3.50;99.90
5924;DHT22;2987;50.884;14.818;2022-12-18T03:42:14;-3.40;99.90
5924;DHT22;2987;50.884;14.818;2022-12-18T03:45:09;-3.70;99.90
5924;DHT22;2987;50.884;14.818;2022-12-18T03:50:33;-3.50;99.90
5924;DHT22;2987;50.884;14.818;2022-12-18T03:53:14;-3.60;99.90
5924;DHT22;2987;50.884;14.818;2022-12-18T03:55:46;-3.70;99.90
5924;DHT22;2987;50.884;14.818;2022-12-18T03:58:17;-3.70;99.90
5924;DHT22;2987;50.884;14.818;2022-12-18T04:00:56;-3.80;99.90
5924;DHT22;2987;50.884;14.818;2022-12-18T04:03:25;-3.90;99.90
5924;DHT22;2987;50.884;14.818;2022-12-18T04:05:54;-3.70;99.90
5924;DHT22;2987;50.884;14.818;2022-12-18T04:08:25;-3.80;99.90
5924;DHT22;2987;50.884;14.818;2022-12-18T04:11:01;-3.90;99.90
5924;DHT22;2987;50.884;14.818;2022-12-18T04:13:30;-3.70;99.90
5924;DHT22;2987;50.884;14.818;2022-12-18T04:15:59;-3.80;99.90
5924;DHT22;2987;50.884;14.818;2022-12-18T04:18:26;-3.60;99.90
5924;DHT22;2987;50.884;14.818;2022-12-18T04:20:53;-3.80;99.90
5924;DHT22;2987;50.884;14.818;2022-12-18T04:23:19;-3.90;99.90
5924;DHT22;2987;50.884;14.818;2022-12-18T04:25:47;-3.70;99.90
5924;DHT22;2987;50.884;14.818;2022-12-18T04:28:20;-3.80;99.90
5924;DHT22;2987;50.884;14.818;2022-12-18T04:30:48;-3.90;99.90
5924;DHT22;2987;50.884;14.818;2022-12-18T04:33:17;-3.70;99.90
5924;DHT22;2987;50.884;14.818;2022-12-18T04:35:42;-3.90;99.90
5924;DHT22;2987;50.884;14.818;2022-12-18T04:38:09;-3.70;99.90
5924;DHT22;2987;50.884;14.818;2022-12-18T04:40:36;-3.90;99.90
5924;DHT22;2987;50.884;14.818;2022-12-18T04:43:09;-3.80;99.90
5924;DHT22;2987;50.884;14.818;2022-12-18T04:45:35;-3.90;99.90
5924;DHT22;2987;50.884;14.818;2022-12-18T04:48:02;-3.70;99.90
5924;DHT22;2987;50.884;14.818;2022-12-18T04:50:28;-3.80;99.90
5924;DHT22;2987;50.884;14.818;2022-12-18T04:52:54;-3.90;99.90
5924;DHT22;2987;50.884;14.818;2022-12-18T04:55:20;-3.70;99.90
5924;DHT22;2987;50.884;14.818;2022-12-18T04:57:46;-3.90;99.90
5924;DHT22;2987;50.884;14.818;2022-12-18T05:00:13;-3.70;99.90
5924;DHT22;2987;50.884;14.818;2022-12-18T05:02:39;-3.80;99.90
5924;DHT22;2987;50.884;14.818;2022-12-18T05:05:07;-3.90;99.90
5924;DHT22;2987;50.884;14.818;2022-12-18T05:07:33;-3.70;99.90
5924;DHT22;2987;50.884;14.818;2022-12-18T05:09:59;-3.80;99.90
5924;DHT22;2987;50.884;14.818;2022-12-18T05:12:25;-3.60;99.90
5924;DHT22;2987;50.884;14.818;2022-12-18T05:14:52;-4.00;99.90
5924;DHT22;2987;50.884;14.818;2022-12-18T05:17:18;-3.90;99.90
5924;DHT22;2987;50.884;14.818;2022-12-18T05:19:44;-3.70;99.90
5924;DHT22;2987;50.884;14.818;2022-12-18T05:22:10;-3.90;99.90
5924;DHT22;2987;50.884;14.818;2022-12-18T05:24:36;-3.80;99.90
5924;DHT22;2987;50.884;14.818;2022-12-18T05:27:02;-3.90;99.90
5924;DHT22;2987;50.884;14.818;2022-12-18T05:29:28;-3.80;99.90
5924;DHT22;2987;50.884;14.818;2022-12-18T05:31:54;-3.90;99.90
5924;DHT22;2987;50.884;14.818;2022-12-18T05:34:20;-3.70;99.90
5924;DHT22;2987;50.884;14.818;2022-12-18T05:36:46;-3.90;99.90
5924;DHT22;2987;50.884;14.818;2022-12-18T05:39:12;-3.70;99.90
5924;DHT22;2987;50.884;14.818;2022-12-18T05:41:38;-3.80;99.90
5924;DHT22;2987;50.884;14.818;2022-12-18T05:44:04;-3.90;99.90
5924;DHT22;2987;50.884;14.818;2022-12-18T05:46:31;-3.70;99.90
5924;DHT22;2987;50.884;14.818;2022-12-18T05:49:00;-3.90;99.90
5924;DHT22;2987;50.884;14.818;2022-12-18T05:51:27;-3.70;99.90
5924;DHT22;2987;50.884;14.818;2022-12-18T05:53:53;-3.80;99.90
5924;DHT22;2987;50.884;14.818;2022-12-18T05:56:21;-3.60;99.90
5924;DHT22;2987;50.884;14.818;2022-12-18T05:58:52;-3.60;99.90
5924;DHT22;2987;50.884;14.818;2022-12-18T06:01:22;-4.00;99.90
5924;DHT22;2987;50.884;14.818;2022-12-18T06:03:48;-4.00;99.90
5924;DHT22;2987;50.884;14.818;2022-12-18T06:06:22;-3.90;99.90
5924;DHT22;2987;50.884;14.818;2022-12-18T06:08:49;-3.70;99.90
5924;DHT22;2987;50.884;14.818;2022-12-18T06:11:19;-3.90;99.90
5924;DHT22;2987;50.884;14.818;2022-12-18T06:13:45;-3.70;99.90
5924;DHT22;2987;50.884;14.818;2022-12-18T06:16:12;-3.80;99.90
5924;DHT22;2987;50.884;14.818;2022-12-18T06:18:39;-3.80;99.90
5924;DHT22;2987;50.884;14.818;2022-12-18T06:21:05;-3.90;99.90
5924;DHT22;2987;50.884;14.818;2022-12-18T06:23:31;-3.80;99.90
5924;DHT22;2987;50.884;14.818;2022-12-18T06:25:57;-4.10;99.90
5924;DHT22;2987;50.884;14.818;2022-12-18T06:28:23;-3.80;99.90
5924;DHT22;2987;50.884;14.818;2022-12-18T06:30:49;-3.90;99.90
5924;DHT22;2987;50.884;14.818;2022-12-18T06:33:16;-3.70;99.90
5924;DHT22;2987;50.884;14.818;2022-12-18T06:35:42;-3.90;99.90
5924;DHT22;2987;50.884;14.818;2022-12-18T06:38:08;-3.90;99.90
5924;DHT22;2987;50.884;14.818;2022-12-18T06:40:37;-4.00;99.90
5924;DHT22;2987;50.884;14.818;2022-12-18T06:43:05;-4.00;99.90
5924;DHT22;2987;50.884;14.818;2022-12-18T06:45:31;-4.10;99.90
5924;DHT22;2987;50.884;14.818;2022-12-18T06:47:57;-3.90;99.90
5924;DHT22;2987;50.884;14.818;2022-12-18T06:50:23;-3.90;99.90
5924;DHT22;2987;50.884;14.818;2022-12-18T06:52:49;-4.00;99.90
5924;DHT22;2987;50.884;14.818;2022-12-18T06:55:15;-4.10;99.90
5924;DHT22;2987;50.884;14.818;2022-12-18T06:57:41;-4.20;99.90
5924;DHT22;2987;50.884;14.818;2022-12-18T07:00:08;-4.10;99.90
5924;DHT22;2987;50.884;14.818;2022-12-18T07:02:34;-3.80;99.90
5924;DHT22;2987;50.884;14.818;2022-12-18T07:05:01;-4.00;99.90
5924;DHT22;2987;50.884;14.818;2022-12-18T07:07:28;-4.20;99.90
5924;DHT22;2987;50.884;14.818;2022-12-18T07:09:54;-4.20;99.90
5924;DHT22;2987;50.884;14.818;2022-12-18T07:12:20;-4.00;99.90
5924;DHT22;2987;50.884;14.818;2022-12-18T07:14:46;-4.00;99.90
5924;DHT22;2987;50.884;14.818;2022-12-18T07:17:12;-4.10;99.90
5924;DHT22;2987;50.884;14.818;2022-12-18T07:19:38;-4.20;99.90
5924;DHT22;2987;50.884;14.818;2022-12-18T07:22:04;-4.20;99.90
5924;DHT22;2987;50.884;14.818;2022-12-18T07:24:32;-4.30;99.90
5924;DHT22;2987;50.884;14.818;2022-12-18T07:26:59;-3.90;99.90
5924;DHT22;2987;50.884;14.818;2022-12-18T07:29:25;-4.10;99.90
5924;DHT22;2987;50.884;14.818;2022-12-18T07:31:51;-3.90;99.90
5924;DHT22;2987;50.884;14.818;2022-12-18T07:34:17;-4.00;99.90
5924;DHT22;2987;50.884;14.818;2022-12-18T07:36:43;-4.00;99.90
5924;DHT22;2987;50.884;14.818;2022-12-18T07:39:11;-4.00;99.90
5924;DHT22;2987;50.884;14.818;2022-12-18T07:41:37;-4.10;99.90
5924;DHT22;2987;50.884;14.818;2022-12-18T07:44:10;-4.20;99.90
5924;DHT22;2987;50.884;14.818;2022-12-18T07:46:36;-4.10;99.90
5924;DHT22;2987;50.884;14.818;2022-12-18T07:49:02;-3.70;99.90
5924;DHT22;2987;50.884;14.818;2022-12-18T07:51:28;-3.90;99.90
5924;DHT22;2987;50.884;14.818;2022-12-18T07:53:54;-3.70;99.90
5924;DHT22;2987;50.884;14.818;2022-12-18T07:56:21;-4.00;99.90
5924;DHT22;2987;50.884;14.818;2022-12-18T07:58:47;-3.80;99.90
5924;DHT22;2987;50.884;14.818;2022-12-18T08:01:13;-3.80;99.90
5924;DHT22;2987;50.884;14.818;2022-12-18T08:03:42;-3.90;99.90
5924;DHT22;2987;50.884;14.818;2022-12-18T08:06:09;-3.70;99.90
5924;DHT22;2987;50.884;14.818;2022-12-18T08:08:36;-3.80;99.90
5924;DHT22;2987;50.884;14.818;2022-12-18T08:11:02;-3.90;99.90
5924;DHT22;2987;50.884;14.818;2022-12-18T08:13:28;-3.70;99.90
5924;DHT22;2987;50.884;14.818;2022-12-18T08:16:05;-3.80;99.90
5924;DHT22;2987;50.884;14.818;2022-12-18T08:18:35;-3.90;99.90
5924;DHT22;2987;50.884;14.818;2022-12-18T08:21:11;-3.70;99.90
5924;DHT22;2987;50.884;14.818;2022-12-18T08:23:41;-3.70;99.90
5924;DHT22;2987;50.884;14.818;2022-12-18T08:26:33;-3.70;99.90
5924;DHT22;2987;50.884;14.818;2022-12-18T08:29:00;-3.70;99.90
5924;DHT22;2987;50.884;14.818;2022-12-18T08:31:27;-3.80;99.90
5924;DHT22;2987;50.884;14.818;2022-12-18T08:33:54;-3.50;99.90
5924;DHT22;2987;50.884;14.818;2022-12-18T08:36:21;-3.60;99.90
5924;DHT22;2987;50.884;14.818;2022-12-18T08:38:48;-3.60;99.90
5924;DHT22;2987;50.884;14.818;2022-12-18T08:41:16;-3.80;99.90
5924;DHT22;2987;50.884;14.818;2022-12-18T08:43:43;-3.70;99.90
5924;DHT22;2987;50.884;14.818;2022-12-18T08:46:34;-3.60;99.90
5924;DHT22;2987;50.884;14.818;2022-12-18T08:49:00;-3.50;99.90
5924;DHT22;2987;50.884;14.818;2022-12-18T08:51:26;-3.50;99.90
5924;DHT22;2987;50.884;14.818;2022-12-18T08:53:52;-3.40;99.90
5924;DHT22;2987;50.884;14.818;2022-12-18T08:56:18;-3.60;99.90
5924;DHT22;2987;50.884;14.818;2022-12-18T08:58:44;-3.40;99.90
5924;DHT22;2987;50.884;14.818;2022-12-18T09:01:12;-3.30;99.90
5924;DHT22;2987;50.884;14.818;2022-12-18T09:03:39;-3.50;99.90
5924;DHT22;2987;50.884;14.818;2022-12-18T09:06:06;-3.50;99.90
5924;DHT22;2987;50.884;14.818;2022-12-18T09:08:32;-3.50;99.90
5924;DHT22;2987;50.884;14.818;2022-12-18T09:10:59;-3.40;99.90
5924;DHT22;2987;50.884;14.818;2022-12-18T09:13:25;-3.10;99.90
5924;DHT22;2987;50.884;14.818;2022-12-18T09:15:53;-3.30;99.90
5924;DHT22;2987;50.884;14.818;2022-12-18T09:18:22;-3.10;99.90
5924;DHT22;2987;50.884;14.818;2022-12-18T09:20:49;-3.30;99.90
5924;DHT22;2987;50.884;14.818;2022-12-18T09:23:19;-3.10;99.90
5924;DHT22;2987;50.884;14.818;2022-12-18T09:25:45;-3.10;99.90
5924;DHT22;2987;50.884;14.818;2022-12-18T09:28:14;-3.20;99.90
5924;DHT22;2987;50.884;14.818;2022-12-18T09:30:43;-2.90;99.90
5924;DHT22;2987;50.884;14.818;2022-12-18T09:33:09;-3.20;99.90
5924;DHT22;2987;50.884;14.818;2022-12-18T09:35:37;-2.90;99.90
5924;DHT22;2987;50.884;14.818;2022-12-18T09:38:04;-2.90;99.90
5924;DHT22;2987;50.884;14.818;2022-12-18T09:40:36;-2.90;99.90
5924;DHT22;2987;50.884;14.818;2022-12-18T09:43:06;-2.90;99.90
5924;DHT22;2987;50.884;14.818;2022-12-18T09:45:45;-2.70;99.90
5924;DHT22;2987;50.884;14.818;2022-12-18T09:48:32;-3.00;99.90
5924;DHT22;2987;50.884;14.818;2022-12-18T09:51:06;-2.90;99.90
5924;DHT22;2987;50.884;14.818;2022-12-18T09:53:37;-2.60;99.90
5924;DHT22;2987;50.884;14.818;2022-12-18T09:58:40;-2.90;99.90
5924;DHT22;2987;50.884;14.818;2022-12-18T10:01:14;-2.70;99.90
5924;DHT22;2987;50.884;14.818;2022-12-18T10:03:44;-2.90;99.90
5924;DHT22;2987;50.884;14.818;2022-12-18T10:06:35;-2.70;99.90
5924;DHT22;2987;50.884;14.818;2022-12-18T10:12:16;-2.90;99.90
5924;DHT22;2987;50.884;14.818;2022-12-18T10:19:50;-2.90;99.90
5924;DHT22;2987;50.884;14.818;2022-12-18T10:22:26;-2.70;99.90
5924;DHT22;2987;50.884;14.818;2022-12-18T10:28:12;-2.70;99.90
5924;DHT22;2987;50.884;14.818;2022-12-18T10:33:08;-2.70;99.90
5924;DHT22;2987;50.884;14.818;2022-12-18T10:35:35;-2.40;99.90
5924;DHT22;2987;50.884;14.818;2022-12-18T10:38:07;-2.90;99.90
5924;DHT22;2987;50.884;14.818;2022-12-18T10:40:51;-2.60;99.90
5924;DHT22;2987;50.884;14.818;2022-12-18T10:43:22;-2.80;99.90
5924;DHT22;2987;50.884;14.818;2022-12-18T10:46:14;-2.90;99.90
5924;DHT22;2987;50.884;14.818;2022-12-18T10:51:26;-2.70;99.90
5924;DHT22;2987;50.884;14.818;2022-12-18T10:53:57;-2.80;99.90
5924;DHT22;2987;50.884;14.818;2022-12-18T10:56:27;-2.70;99.90
5924;DHT22;2987;50.884;14.818;2022-12-18T10:58:59;-2.30;99.90
5924;DHT22;2987;50.884;14.818;2022-12-18T11:01:25;-2.20;99.90
5924;DHT22;2987;50.884;14.818;2022-12-18T11:04:02;-2.50;99.90
5924;DHT22;2987;50.884;14.818;2022-12-18T11:06:33;-2.20;99.90
5924;DHT22;2987;50.884;14.818;2022-12-18T11:09:06;-2.70;99.90
5924;DHT22;2987;50.884;14.818;2022-12-18T11:11:49;-2.50;99.90
5924;DHT22;2987;50.884;14.818;2022-12-18T11:14:24;-2.70;99.90
5924;DHT22;2987;50.884;14.818;2022-12-18T11:16:51;-2.70;99.90
5924;DHT22;2987;50.884;14.818;2022-12-18T11:19:36;-2.50;99.90
5924;DHT22;2987;50.884;14.818;2022-12-18T11:22:21;-2.80;99.90
5924;DHT22;2987;50.884;14.818;2022-12-18T11:24:59;-2.70;99.90
5924;DHT22;2987;50.884;14.818;2022-12-18T11:27:26;-2.60;99.90
5924;DHT22;2987;50.884;14.818;2022-12-18T11:30:09;-2.70;99.90
5924;DHT22;2987;50.884;14.818;2022-12-18T11:32:39;-2.20;99.90
5924;DHT22;2987;50.884;14.818;2022-12-18T11:35:19;-2.50;99.90
5924;DHT22;2987;50.884;14.818;2022-12-18T11:37:50;-2.20;99.90
5924;DHT22;2987;50.884;14.818;2022-12-18T11:40:29;-2.50;99.90
5924;DHT22;2987;50.884;14.818;2022-12-18T11:43:02;-2.30;99.90
5924;DHT22;2987;50.884;14.818;2022-12-18T11:45:35;-2.20;99.90
5924;DHT22;2987;50.884;14.818;2022-12-18T11:48:14;-2.50;99.90
5924;DHT22;2987;50.884;14.818;2022-12-18T11:50:52;-2.20;99.90
5924;DHT22;2987;50.884;14.818;2022-12-18T11:53:19;-2.40;99.90
5924;DHT22;2987;50.884;14.818;2022-12-18T11:56:00;-2.70;99.90
5924;DHT22;2987;50.884;14.818;2022-12-18T11:58:51;-2.30;99.90
5924;DHT22;2987;50.884;14.818;2022-12-18T12:04:20;-2.50;99.90
5924;DHT22;2987;50.884;14.818;2022-12-18T12:10:20;-2.60;99.90
5924;DHT22;2987;50.884;14.818;2022-12-18T12:13:14;-2.50;99.90
5924;DHT22;2987;50.884;14.818;2022-12-18T12:23:53;-2.50;99.90
5924;DHT22;2987;50.884;14.818;2022-12-18T12:29:00;-2.20;99.90
5924;DHT22;2987;50.884;14.818;2022-12-18T12:31:44;-2.30;99.90
5924;DHT22;2987;50.884;14.818;2022-12-18T12:34:29;-2.20;99.90
5924;DHT22;2987;50.884;14.818;2022-12-18T12:37:22;-1.90;99.90
5924;DHT22;2987;50.884;14.818;2022-12-18T12:39:53;-2.30;99.90
5924;DHT22;2987;50.884;14.818;2022-12-18T12:42:31;-2.00;99.90
5924;DHT22;2987;50.884;14.818;2022-12-18T12:47:47;-2.50;99.90
5924;DHT22;2987;50.884;14.818;2022-12-18T12:50:17;-2.70;99.90
5924;DHT22;2987;50.884;14.818;2022-12-18T12:52:54;-2.50;99.90
5924;DHT22;2987;50.884;14.818;2022-12-18T12:55:24;-2.80;99.90
5924;DHT22;2987;50.884;14.818;2022-12-18T12:58:14;-2.70;99.90
5924;DHT22;2987;50.884;14.818;2022-12-18T13:00:50;-2.50;99.90
5924;DHT22;2987;50.884;14.818;2022-12-18T13:03:42;-2.70;99.90
5924;DHT22;2987;50.884;14.818;2022-12-18T13:06:35;-2.30;99.90
5924;DHT22;2987;50.884;14.818;2022-12-18T13:09:02;-2.70;99.90
5924;DHT22;2987;50.884;14.818;2022-12-18T13:14:34;-2.20;99.90
5924;DHT22;2987;50.884;14.818;2022-12-18T13:17:27;-2.50;99.90
5924;DHT22;2987;50.884;14.818;2022-12-18T13:20:14;-2.50;99.90
5924;DHT22;2987;50.884;14.818;2022-12-18T13:22:44;-2.60;99.90
5924;DHT22;2987;50.884;14.818;2022-12-18T13:25:29;-2.70;99.90
5924;DHT22;2987;50.884;14.818;2022-12-18T13:33:41;-2.70;99.90
5924;DHT22;2987;50.884;14.818;2022-12-18T13:39:22;-2.90;99.90
5924;DHT22;2987;50.884;14.818;2022-12-18T13:47:04;-2.60;99.90
5924;DHT22;2987;50.884;14.818;2022-12-18T13:49:41;-3.10;99.90
5924;DHT22;2987;50.884;14.818;2022-12-18T13:52:19;-3.00;99.90
5924;DHT22;2987;50.884;14.818;2022-12-18T13:54:51;-2.90;99.90
5924;DHT22;2987;50.884;14.818;2022-12-18T13:57:36;-3.00;99.90
5924;DHT22;2987;50.884;14.818;2022-12-18T14:00:25;-2.90;99.90
5924;DHT22;2987;50.884;14.818;2022-12-18T14:02:54;-3.00;99.90
5924;DHT22;2987;50.884;14.818;2022-12-18T14:05:28;-2.90;99.90
5924;DHT22;2987;50.884;14.818;2022-12-18T14:08:15;-3.00;99.90
5924;DHT22;2987;50.884;14.818;2022-12-18T14:10:45;-3.10;99.90
5924;DHT22;2987;50.884;14.818;2022-12-18T14:13:30;-3.10;99.90
5924;DHT22;2987;50.884;14.818;2022-12-18T14:16:01;-3.20;99.90
5924;DHT22;2987;50.884;14.818;2022-12-18T14:18:41;-3.10;99.90
5924;DHT22;2987;50.884;14.818;2022-12-18T14:21:19;-3.10;99.90
5924;DHT22;2987;50.884;14.818;2022-12-18T14:23:46;-3.10;99.90
5924;DHT22;2987;50.884;14.818;2022-12-18T14:26:30;-3.40;99.90
5924;DHT22;2987;50.884;14.818;2022-12-18T14:28:59;-3.40;99.90
5924;DHT22;2987;50.884;14.818;2022-12-18T14:31:29;-3.40;99.90
5924;DHT22;2987;50.884;14.818;2022-12-18T14:33:56;-3.40;99.90
5924;DHT22;2987;50.884;14.818;2022-12-18T14:36:25;-3.20;99.90
5924;DHT22;2987;50.884;14.818;2022-12-18T14:38:54;-3.30;99.90
5924;DHT22;2987;50.884;14.818;2022-12-18T14:41:21;-3.40;99.90
5924;DHT22;2987;50.884;14.818;2022-12-18T14:43:50;-3.60;99.90
5924;DHT22;2987;50.884;14.818;2022-12-18T14:46:35;-3.40;99.90
5924;DHT22;2987;50.884;14.818;2022-12-18T14:49:14;-3.60;99.90
5924;DHT22;2987;50.884;14.818;2022-12-18T14:51:49;-3.50;99.90
5924;DHT22;2987;50.884;14.818;2022-12-18T14:54:18;-3.50;99.90
5924;DHT22;2987;50.884;14.818;2022-12-18T14:56:48;-3.70;99.90
5924;DHT22;2987;50.884;14.818;2022-12-18T14:59:19;-3.70;99.90
5924;DHT22;2987;50.884;14.818;2022-12-18T15:01:56;-3.70;99.90
5924;DHT22;2987;50.884;14.818;2022-12-18T15:04:34;-3.60;99.90
5924;DHT22;2987;50.884;14.818;2022-12-18T15:07:23;-4.00;99.90
5924;DHT22;2987;50.884;14.818;2022-12-18T15:15:04;-3.80;99.90
5924;DHT22;2987;50.884;14.818;2022-12-18T15:17:31;-3.90;99.90
5924;DHT22;2987;50.884;14.818;2022-12-18T15:20:00;-3.80;99.90
5924;DHT22;2987;50.884;14.818;2022-12-18T15:22:29;-3.90;99.90
5924;DHT22;2987;50.884;14.818;2022-12-18T15:24:57;-3.80;99.90
5924;DHT22;2987;50.884;14.818;2022-12-18T15:27:30;-3.90;99.90
5924;DHT22;2987;50.884;14.818;2022-12-18T15:30:18;-4.00;99.90
5924;DHT22;2987;50.884;14.818;2022-12-18T15:32:45;-4.10;99.90
5924;DHT22;2987;50.884;14.818;2022-12-18T15:35:18;-4.20;99.90
5924;DHT22;2987;50.884;14.818;2022-12-18T15:37:45;-4.20;99.90
5924;DHT22;2987;50.884;14.818;2022-12-18T15:40:16;-3.90;99.90
5924;DHT22;2987;50.884;14.818;2022-12-18T15:42:43;-4.20;99.90
5924;DHT22;2987;50.884;14.818;2022-12-18T15:45:30;-4.30;99.90
5924;DHT22;2987;50.884;14.818;2022-12-18T15:47:56;-4.00;99.90
5924;DHT22;2987;50.884;14.818;2022-12-18T15:50:26;-4.20;99.90
5924;DHT22;2987;50.884;14.818;2022-12-18T15:52:53;-4.30;99.90
5924;DHT22;2987;50.884;14.818;2022-12-18T15:55:22;-4.10;99.90
5924;DHT22;2987;50.884;14.818;2022-12-18T15:58:09;-4.20;99.90
5924;DHT22;2987;50.884;14.818;2022-12-18T16:00:38;-4.20;99.90
5924;DHT22;2987;50.884;14.818;2022-12-18T16:03:05;-4.10;99.90
5924;DHT22;2987;50.884;14.818;2022-12-18T16:05:31;-4.20;99.90
5924;DHT22;2987;50.884;14.818;2022-12-18T16:07:58;-4.20;99.90
5924;DHT22;2987;50.884;14.818;2022-12-18T16:10:26;-4.10;99.90
5924;DHT22;2987;50.884;14.818;2022-12-18T16:12:55;-4.20;99.90
5924;DHT22;2987;50.884;14.818;2022-12-18T16:15:21;-4.20;99.90
5924;DHT22;2987;50.884;14.818;2022-12-18T16:17:48;-4.10;99.90
5924;DHT22;2987;50.884;14.818;2022-12-18T16:20:17;-4.20;99.90
5924;DHT22;2987;50.884;14.818;2022-12-18T16:22:44;-4.10;99.90
5924;DHT22;2987;50.884;14.818;2022-12-18T16:25:19;-4.20;99.90
5924;DHT22;2987;50.884;14.818;2022-12-18T16:27:47;-4.00;99.90
5924;DHT22;2987;50.884;14.818;2022-12-18T16:30:16;-4.30;99.90
5924;DHT22;2987;50.884;14.818;2022-12-18T16:32:43;-4.10;99.90
5924;DHT22;2987;50.884;14.818;2022-12-18T16:35:12;-4.30;99.90
5924;DHT22;2987;50.884;14.818;2022-12-18T16:37:39;-4.10;99.90
5924;DHT22;2987;50.884;14.818;2022-12-18T16:40:08;-4.30;99.90
5924;DHT22;2987;50.884;14.818;2022-12-18T16:42:37;-4.10;99.90
5924;DHT22;2987;50.884;14.818;2022-12-18T16:45:04;-4.30;99.90
5924;DHT22;2987;50.884;14.818;2022-12-18T16:47:30;-4.20;99.90
5924;DHT22;2987;50.884;14.818;2022-12-18T16:49:57;-4.20;99.90
5924;DHT22;2987;50.884;14.818;2022-12-18T16:52:27;-4.20;99.90
5924;DHT22;2987;50.884;14.818;2022-12-18T16:54:53;-4.20;99.90
5924;DHT22;2987;50.884;14.818;2022-12-18T16:57:20;-4.20;99.90
5924;DHT22;2987;50.884;14.818;2022-12-18T16:59:47;-4.30;99.90
5924;DHT22;2987;50.884;14.818;2022-12-18T17:02:17;-4.40;99.90
5924;DHT22;2987;50.884;14.818;2022-12-18T17:04:44;-4.30;99.90
5924;DHT22;2987;50.884;14.818;2022-12-18T17:07:12;-4.20;99.90
5924;DHT22;2987;50.884;14.818;2022-12-18T17:09:39;-4.30;99.90
5924;DHT22;2987;50.884;14.818;2022-12-18T17:12:06;-4.40;99.90
5924;DHT22;2987;50.884;14.818;2022-12-18T17:14:33;-4.40;99.90
5924;DHT22;2987;50.884;14.818;2022-12-18T17:17:00;-4.40;99.90
5924;DHT22;2987;50.884;14.818;2022-12-18T17:19:27;-4.60;99.90
5924;DHT22;2987;50.884;14.818;2022-12-18T17:21:54;-4.40;99.90
5924;DHT22;2987;50.884;14.818;2022-12-18T17:24:20;-4.50;99.90